GCRR/ACE METAR and TAF weather

Enter ICAO airport designator
Station Type Date Time Source
GCRR METAR 2019/06/17 13:00 UTC NOAA

GCRR 171300Z 13006KT 9999 FEW030 22/17 Q1019


Station Type Date Time Source
GCRR Decoded METAR 2019/06/17 13:00 UTC NOAA

Lanzarote / Aeropuerto, Spain (GCRR) 28-57N 013-36W 21M
Jun 17, 2019 - 09:00 AM EDT / 2019.06.17 1300 UTC
Wind: from the SE (130 degrees) at 7 MPH (6 KT):0
Visibility: greater than 7 mile(s):0
Sky conditions: mostly clear
Temperature: 71 F (22 C)
Dew Point: 62 F (17 C)
Relative Humidity: 73%
Pressure (altimeter): 30.09 in. Hg (1019 hPa)
ob: GCRR 171300Z 13006KT 9999 FEW030 22/17 Q1019
cycle: 13

Station Type Date Time Source
GCRR TAF 2019/06/17 09:31 UTC NOAA

TAF GCRR 170800Z 1709/1809 13010KT 9999 FEW030 TX26/1715Z TN19/1806Z
TEMPO 1709/1711 04006KT
BECMG 1719/1721 34006KT

Example: see airport list